sensor_id;sensor_type;location;lat;lon;timestamp;P1;durP1;ratioP1;P2;durP2;ratioP2
10432;SDS011;5263;48.680;9.004;2022-12-07T00:01:06;8.27;;;7.20;;
10432;SDS011;5263;48.680;9.004;2022-12-07T00:03:33;9.07;;;6.57;;
10432;SDS011;5263;48.680;9.004;2022-12-07T00:06:00;11.63;;;6.83;;
10432;SDS011;5263;48.680;9.004;2022-12-07T00:08:26;8.80;;;7.37;;
10432;SDS011;5263;48.680;9.004;2022-12-07T00:10:52;7.77;;;6.53;;
10432;SDS011;5263;48.680;9.004;2022-12-07T00:13:18;7.97;;;6.23;;
10432;SDS011;5263;48.680;9.004;2022-12-07T00:15:44;9.33;;;6.77;;
10432;SDS011;5263;48.680;9.004;2022-12-07T00:18:09;8.30;;;6.10;;
10432;SDS011;5263;48.680;9.004;2022-12-07T00:20:35;10.73;;;7.23;;
10432;SDS011;5263;48.680;9.004;2022-12-07T00:23:01;10.57;;;6.73;;
10432;SDS011;5263;48.680;9.004;2022-12-07T00:25:26;8.63;;;6.60;;
10432;SDS011;5263;48.680;9.004;2022-12-07T00:27:53;9.77;;;6.43;;
10432;SDS011;5263;48.680;9.004;2022-12-07T00:30:20;7.63;;;5.83;;
10432;SDS011;5263;48.680;9.004;2022-12-07T00:32:46;7.20;;;6.50;;
10432;SDS011;5263;48.680;9.004;2022-12-07T00:35:12;11.20;;;6.77;;
10432;SDS011;5263;48.680;9.004;2022-12-07T00:37:38;8.13;;;6.20;;
10432;SDS011;5263;48.680;9.004;2022-12-07T00:40:04;7.03;;;6.33;;
10432;SDS011;5263;48.680;9.004;2022-12-07T00:42:30;7.70;;;6.33;;
10432;SDS011;5263;48.680;9.004;2022-12-07T00:44:56;9.27;;;7.30;;
10432;SDS011;5263;48.680;9.004;2022-12-07T00:47:22;7.60;;;6.57;;
10432;SDS011;5263;48.680;9.004;2022-12-07T00:49:47;8.87;;;7.13;;
10432;SDS011;5263;48.680;9.004;2022-12-07T00:52:13;12.77;;;9.50;;
10432;SDS011;5263;48.680;9.004;2022-12-07T00:54:39;8.00;;;7.07;;
10432;SDS011;5263;48.680;9.004;2022-12-07T00:57:05;10.53;;;7.17;;
10432;SDS011;5263;48.680;9.004;2022-12-07T00:59:30;7.30;;;6.57;;
10432;SDS011;5263;48.680;9.004;2022-12-07T01:01:56;7.93;;;7.13;;
10432;SDS011;5263;48.680;9.004;2022-12-07T01:04:21;7.97;;;7.17;;
10432;SDS011;5263;48.680;9.004;2022-12-07T01:06:47;9.23;;;8.17;;
10432;SDS011;5263;48.680;9.004;2022-12-07T01:09:13;9.87;;;8.37;;
10432;SDS011;5263;48.680;9.004;2022-12-07T01:11:38;8.93;;;8.03;;
10432;SDS011;5263;48.680;9.004;2022-12-07T01:14:04;9.70;;;8.70;;
10432;SDS011;5263;48.680;9.004;2022-12-07T01:16:30;9.97;;;8.97;;
10432;SDS011;5263;48.680;9.004;2022-12-07T01:18:57;8.93;;;8.00;;
10432;SDS011;5263;48.680;9.004;2022-12-07T01:21:28;9.93;;;8.93;;
10432;SDS011;5263;48.680;9.004;2022-12-07T01:23:59;9.33;;;8.43;;
10432;SDS011;5263;48.680;9.004;2022-12-07T01:26:25;9.93;;;8.93;;
10432;SDS011;5263;48.680;9.004;2022-12-07T01:28:51;9.70;;;8.70;;
10432;SDS011;5263;48.680;9.004;2022-12-07T01:31:20;8.73;;;7.83;;
10432;SDS011;5263;48.680;9.004;2022-12-07T01:33:50;14.10;;;9.73;;
10432;SDS011;5263;48.680;9.004;2022-12-07T01:36:19;10.57;;;9.23;;
10432;SDS011;5263;48.680;9.004;2022-12-07T01:38:45;10.43;;;9.23;;
10432;SDS011;5263;48.680;9.004;2022-12-07T01:41:12;12.80;;;10.77;;
10432;SDS011;5263;48.680;9.004;2022-12-07T01:44:07;10.53;;;9.43;;
10432;SDS011;5263;48.680;9.004;2022-12-07T01:46:58;9.83;;;8.83;;
10432;SDS011;5263;48.680;9.004;2022-12-07T01:49:28;10.33;;;9.33;;
10432;SDS011;5263;48.680;9.004;2022-12-07T01:52:16;13.70;;;9.13;;
10432;SDS011;5263;48.680;9.004;2022-12-07T01:54:43;11.10;;;9.23;;
10432;SDS011;5263;48.680;9.004;2022-12-07T01:57:10;10.80;;;9.57;;
10432;SDS011;5263;48.680;9.004;2022-12-07T01:59:38;11.50;;;10.30;;
10432;SDS011;5263;48.680;9.004;2022-12-07T02:02:05;12.23;;;9.70;;
10432;SDS011;5263;48.680;9.004;2022-12-07T02:04:37;10.80;;;9.30;;
10432;SDS011;5263;48.680;9.004;2022-12-07T02:07:03;10.93;;;8.90;;
10432;SDS011;5263;48.680;9.004;2022-12-07T02:09:30;9.00;;;8.10;;
10432;SDS011;5263;48.680;9.004;2022-12-07T02:11:55;8.87;;;7.03;;
10432;SDS011;5263;48.680;9.004;2022-12-07T02:14:21;7.60;;;6.90;;
10432;SDS011;5263;48.680;9.004;2022-12-07T02:16:51;10.53;;;8.10;;
10432;SDS011;5263;48.680;9.004;2022-12-07T02:30:19;7.90;;;7.20;;
10432;SDS011;5263;48.680;9.004;2022-12-07T02:32:51;9.33;;;7.37;;
10432;SDS011;5263;48.680;9.004;2022-12-07T02:35:46;8.50;;;7.57;;
10432;SDS011;5263;48.680;9.004;2022-12-07T02:38:20;7.93;;;6.87;;
10432;SDS011;5263;48.680;9.004;2022-12-07T02:41:06;7.17;;;6.47;;
10432;SDS011;5263;48.680;9.004;2022-12-07T02:43:59;8.57;;;6.60;;
10432;SDS011;5263;48.680;9.004;2022-12-07T02:46:30;7.00;;;6.30;;
10432;SDS011;5263;48.680;9.004;2022-12-07T02:49:05;7.73;;;6.93;;
10432;SDS011;5263;48.680;9.004;2022-12-07T02:51:33;7.83;;;7.00;;
10432;SDS011;5263;48.680;9.004;2022-12-07T02:54:07;7.57;;;6.83;;
10432;SDS011;5263;48.680;9.004;2022-12-07T03:09:51;8.37;;;7.40;;
10432;SDS011;5263;48.680;9.004;2022-12-07T03:12:34;10.63;;;8.50;;
10432;SDS011;5263;48.680;9.004;2022-12-07T03:15:10;8.63;;;7.13;;
10432;SDS011;5263;48.680;9.004;2022-12-07T03:17:41;10.50;;;8.73;;
10432;SDS011;5263;48.680;9.004;2022-12-07T03:20:11;8.80;;;7.90;;
10432;SDS011;5263;48.680;9.004;2022-12-07T03:22:39;8.37;;;7.47;;
10432;SDS011;5263;48.680;9.004;2022-12-07T03:25:09;8.53;;;7.60;;
10432;SDS011;5263;48.680;9.004;2022-12-07T03:27:49;8.57;;;7.67;;
10432;SDS011;5263;48.680;9.004;2022-12-07T03:30:22;8.97;;;8.07;;
10432;SDS011;5263;48.680;9.004;2022-12-07T03:36:14;8.63;;;7.50;;
10432;SDS011;5263;48.680;9.004;2022-12-07T03:39:02;10.90;;;8.23;;
10432;SDS011;5263;48.680;9.004;2022-12-07T03:41:49;10.23;;;8.30;;
10432;SDS011;5263;48.680;9.004;2022-12-07T03:44:16;10.03;;;8.53;;
10432;SDS011;5263;48.680;9.004;2022-12-07T03:49:49;10.73;;;9.57;;
10432;SDS011;5263;48.680;9.004;2022-12-07T03:52:37;11.67;;;10.13;;
10432;SDS011;5263;48.680;9.004;2022-12-07T03:55:08;10.70;;;9.60;;
10432;SDS011;5263;48.680;9.004;2022-12-07T03:57:50;9.63;;;8.43;;
10432;SDS011;5263;48.680;9.004;2022-12-07T04:00:19;12.37;;;8.97;;
10432;SDS011;5263;48.680;9.004;2022-12-07T04:02:46;8.97;;;8.07;;
10432;SDS011;5263;48.680;9.004;2022-12-07T04:05:12;8.40;;;7.60;;
10432;SDS011;5263;48.680;9.004;2022-12-07T04:07:38;10.53;;;7.90;;
10432;SDS011;5263;48.680;9.004;2022-12-07T04:10:04;9.40;;;8.50;;
10432;SDS011;5263;48.680;9.004;2022-12-07T04:12:30;9.10;;;8.13;;
10432;SDS011;5263;48.680;9.004;2022-12-07T04:14:55;8.77;;;7.87;;
10432;SDS011;5263;48.680;9.004;2022-12-07T04:17:21;10.40;;;8.40;;
10432;SDS011;5263;48.680;9.004;2022-12-07T04:19:47;8.70;;;7.80;;
10432;SDS011;5263;48.680;9.004;2022-12-07T04:22:12;9.37;;;8.40;;
10432;SDS011;5263;48.680;9.004;2022-12-07T04:24:38;9.07;;;8.10;;
10432;SDS011;5263;48.680;9.004;2022-12-07T04:27:04;10.03;;;8.03;;
10432;SDS011;5263;48.680;9.004;2022-12-07T04:29:29;8.87;;;7.97;;
10432;SDS011;5263;48.680;9.004;2022-12-07T04:31:55;7.40;;;6.67;;
10432;SDS011;5263;48.680;9.004;2022-12-07T04:34:20;7.13;;;6.43;;
10432;SDS011;5263;48.680;9.004;2022-12-07T04:36:46;13.13;;;6.93;;
10432;SDS011;5263;48.680;9.004;2022-12-07T04:41:46;7.20;;;6.50;;
10432;SDS011;5263;48.680;9.004;2022-12-07T04:44:12;8.40;;;7.27;;
10432;SDS011;5263;48.680;9.004;2022-12-07T04:46:39;6.60;;;5.73;;
10432;SDS011;5263;48.680;9.004;2022-12-07T04:49:05;8.33;;;7.27;;
10432;SDS011;5263;48.680;9.004;2022-12-07T04:51:31;7.03;;;5.90;;
10432;SDS011;5263;48.680;9.004;2022-12-07T04:53:57;7.60;;;6.13;;
10432;SDS011;5263;48.680;9.004;2022-12-07T04:56:22;9.13;;;6.70;;
10432;SDS011;5263;48.680;9.004;2022-12-07T04:58:49;6.63;;;5.87;;
10432;SDS011;5263;48.680;9.004;2022-12-07T05:01:16;6.20;;;5.60;;
10432;SDS011;5263;48.680;9.004;2022-12-07T05:03:42;7.10;;;6.40;;
10432;SDS011;5263;48.680;9.004;2022-12-07T05:06:08;6.20;;;5.60;;
10432;SDS011;5263;48.680;9.004;2022-12-07T05:08:35;6.03;;;5.47;;
10432;SDS011;5263;48.680;9.004;2022-12-07T05:11:01;6.10;;;5.50;;
10432;SDS011;5263;48.680;9.004;2022-12-07T05:13:28;6.57;;;5.97;;
10432;SDS011;5263;48.680;9.004;2022-12-07T05:15:53;7.53;;;5.63;;
10432;SDS011;5263;48.680;9.004;2022-12-07T05:18:19;8.37;;;5.70;;
10432;SDS011;5263;48.680;9.004;2022-12-07T05:20:45;7.00;;;5.97;;
10432;SDS011;5263;48.680;9.004;2022-12-07T05:23:11;6.30;;;5.70;;
10432;SDS011;5263;48.680;9.004;2022-12-07T05:25:37;7.00;;;6.30;;
10432;SDS011;5263;48.680;9.004;2022-12-07T05:28:02;6.27;;;5.60;;
10432;SDS011;5263;48.680;9.004;2022-12-07T05:30:29;10.70;;;6.83;;
10432;SDS011;5263;48.680;9.004;2022-12-07T05:32:55;9.13;;;5.23;;
10432;SDS011;5263;48.680;9.004;2022-12-07T05:35:20;6.13;;;4.13;;
10432;SDS011;5263;48.680;9.004;2022-12-07T05:37:46;5.07;;;4.57;;
10432;SDS011;5263;48.680;9.004;2022-12-07T05:40:12;4.83;;;4.40;;
10432;SDS011;5263;48.680;9.004;2022-12-07T05:42:39;6.30;;;4.17;;
10432;SDS011;5263;48.680;9.004;2022-12-07T05:45:05;5.47;;;4.10;;
10432;SDS011;5263;48.680;9.004;2022-12-07T05:47:31;4.30;;;4.00;;
10432;SDS011;5263;48.680;9.004;2022-12-07T05:49:57;5.00;;;4.20;;
10432;SDS011;5263;48.680;9.004;2022-12-07T05:52:22;4.70;;;4.13;;
10432;SDS011;5263;48.680;9.004;2022-12-07T05:54:48;4.50;;;4.10;;
10432;SDS011;5263;48.680;9.004;2022-12-07T05:57:14;5.57;;;5.07;;
10432;SDS011;5263;48.680;9.004;2022-12-07T05:59:40;5.20;;;4.70;;
10432;SDS011;5263;48.680;9.004;2022-12-07T06:02:10;6.93;;;5.57;;
10432;SDS011;5263;48.680;9.004;2022-12-07T06:04:38;5.60;;;4.97;;
10432;SDS011;5263;48.680;9.004;2022-12-07T06:07:06;7.03;;;6.03;;
10432;SDS011;5263;48.680;9.004;2022-12-07T06:09:32;7.90;;;5.90;;
10432;SDS011;5263;48.680;9.004;2022-12-07T06:11:58;6.67;;;5.80;;
10432;SDS011;5263;48.680;9.004;2022-12-07T06:14:43;26.30;;;15.93;;
10432;SDS011;5263;48.680;9.004;2022-12-07T06:17:09;10.37;;;7.63;;
10432;SDS011;5263;48.680;9.004;2022-12-07T06:19:35;10.87;;;7.50;;
10432;SDS011;5263;48.680;9.004;2022-12-07T06:22:01;8.50;;;7.10;;
10432;SDS011;5263;48.680;9.004;2022-12-07T06:24:27;9.20;;;8.17;;
10432;SDS011;5263;48.680;9.004;2022-12-07T06:26:53;9.67;;;7.87;;
10432;SDS011;5263;48.680;9.004;2022-12-07T06:29:19;10.37;;;8.37;;
10432;SDS011;5263;48.680;9.004;2022-12-07T06:31:44;10.00;;;7.73;;
10432;SDS011;5263;48.680;9.004;2022-12-07T06:34:12;10.57;;;8.33;;
10432;SDS011;5263;48.680;9.004;2022-12-07T06:36:39;15.03;;;9.57;;
10432;SDS011;5263;48.680;9.004;2022-12-07T06:39:05;11.27;;;8.60;;
10432;SDS011;5263;48.680;9.004;2022-12-07T06:41:33;10.03;;;8.77;;
10432;SDS011;5263;48.680;9.004;2022-12-07T06:44:03;15.23;;;11.33;;
10432;SDS011;5263;48.680;9.004;2022-12-07T06:46:31;10.63;;;8.87;;
10432;SDS011;5263;48.680;9.004;2022-12-07T06:48:57;9.90;;;8.03;;
10432;SDS011;5263;48.680;9.004;2022-12-07T06:51:23;10.50;;;8.50;;
10432;SDS011;5263;48.680;9.004;2022-12-07T06:53:49;10.67;;;8.30;;
10432;SDS011;5263;48.680;9.004;2022-12-07T06:56:14;11.93;;;9.70;;
10432;SDS011;5263;48.680;9.004;2022-12-07T06:58:40;14.13;;;9.97;;
10432;SDS011;5263;48.680;9.004;2022-12-07T07:01:13;12.73;;;9.73;;
10432;SDS011;5263;48.680;9.004;2022-12-07T07:03:40;16.10;;;9.97;;
10432;SDS011;5263;48.680;9.004;2022-12-07T07:06:06;14.57;;;10.13;;
10432;SDS011;5263;48.680;9.004;2022-12-07T07:08:32;14.60;;;10.63;;
10432;SDS011;5263;48.680;9.004;2022-12-07T07:10:58;16.73;;;10.50;;
10432;SDS011;5263;48.680;9.004;2022-12-07T07:13:24;12.67;;;9.53;;
10432;SDS011;5263;48.680;9.004;2022-12-07T07:15:50;12.97;;;9.87;;
10432;SDS011;5263;48.680;9.004;2022-12-07T07:18:15;12.73;;;9.90;;
10432;SDS011;5263;48.680;9.004;2022-12-07T07:20:41;13.40;;;9.70;;
10432;SDS011;5263;48.680;9.004;2022-12-07T07:23:06;15.10;;;9.70;;
10432;SDS011;5263;48.680;9.004;2022-12-07T07:25:32;9.93;;;8.27;;
10432;SDS011;5263;48.680;9.004;2022-12-07T07:27:58;10.17;;;8.27;;
10432;SDS011;5263;48.680;9.004;2022-12-07T07:30:24;8.27;;;7.17;;
10432;SDS011;5263;48.680;9.004;2022-12-07T07:32:50;9.57;;;7.13;;
10432;SDS011;5263;48.680;9.004;2022-12-07T07:35:16;9.57;;;7.43;;
10432;SDS011;5263;48.680;9.004;2022-12-07T07:37:42;8.73;;;6.90;;
10432;SDS011;5263;48.680;9.004;2022-12-07T07:40:08;11.30;;;7.80;;
10432;SDS011;5263;48.680;9.004;2022-12-07T07:42:34;9.90;;;7.37;;
10432;SDS011;5263;48.680;9.004;2022-12-07T07:45:00;6.73;;;5.97;;
10432;SDS011;5263;48.680;9.004;2022-12-07T07:47:26;9.60;;;6.97;;
10432;SDS011;5263;48.680;9.004;2022-12-07T07:49:51;7.20;;;6.13;;
10432;SDS011;5263;48.680;9.004;2022-12-07T07:52:17;10.17;;;7.50;;
10432;SDS011;5263;48.680;9.004;2022-12-07T07:54:42;8.93;;;6.90;;
10432;SDS011;5263;48.680;9.004;2022-12-07T07:57:08;8.10;;;6.40;;
10432;SDS011;5263;48.680;9.004;2022-12-07T07:59:33;10.07;;;6.67;;
10432;SDS011;5263;48.680;9.004;2022-12-07T08:01:59;8.13;;;6.67;;
10432;SDS011;5263;48.680;9.004;2022-12-07T08:04:25;8.27;;;7.40;;
10432;SDS011;5263;48.680;9.004;2022-12-07T08:06:51;6.77;;;5.63;;
10432;SDS011;5263;48.680;9.004;2022-12-07T08:09:16;6.73;;;5.77;;
10432;SDS011;5263;48.680;9.004;2022-12-07T08:11:42;6.60;;;5.33;;
10432;SDS011;5263;48.680;9.004;2022-12-07T08:14:07;6.23;;;5.20;;
10432;SDS011;5263;48.680;9.004;2022-12-07T08:16:34;4.90;;;4.37;;
10432;SDS011;5263;48.680;9.004;2022-12-07T08:19:00;4.97;;;4.27;;
10432;SDS011;5263;48.680;9.004;2022-12-07T08:21:25;4.90;;;4.30;;
10432;SDS011;5263;48.680;9.004;2022-12-07T08:23:51;5.87;;;4.70;;
10432;SDS011;5263;48.680;9.004;2022-12-07T08:26:16;7.50;;;4.70;;
10432;SDS011;5263;48.680;9.004;2022-12-07T08:28:42;5.90;;;4.93;;
10432;SDS011;5263;48.680;9.004;2022-12-07T08:31:12;9.07;;;4.70;;
10432;SDS011;5263;48.680;9.004;2022-12-07T08:33:40;5.93;;;4.50;;
10432;SDS011;5263;48.680;9.004;2022-12-07T08:36:08;5.93;;;4.60;;
10432;SDS011;5263;48.680;9.004;2022-12-07T08:38:35;4.77;;;4.27;;
10432;SDS011;5263;48.680;9.004;2022-12-07T08:41:02;5.60;;;4.60;;
10432;SDS011;5263;48.680;9.004;2022-12-07T08:43:28;4.43;;;3.77;;
10432;SDS011;5263;48.680;9.004;2022-12-07T08:46:03;5.43;;;4.27;;
10432;SDS011;5263;48.680;9.004;2022-12-07T08:48:41;7.47;;;4.30;;
10432;SDS011;5263;48.680;9.004;2022-12-07T08:51:11;5.00;;;4.00;;
10432;SDS011;5263;48.680;9.004;2022-12-07T08:53:38;4.90;;;3.90;;
10432;SDS011;5263;48.680;9.004;2022-12-07T08:56:04;4.77;;;3.90;;
10432;SDS011;5263;48.680;9.004;2022-12-07T08:58:32;7.33;;;3.83;;
10432;SDS011;5263;48.680;9.004;2022-12-07T09:00:58;4.03;;;3.60;;
10432;SDS011;5263;48.680;9.004;2022-12-07T09:03:24;4.57;;;3.93;;
10432;SDS011;5263;48.680;9.004;2022-12-07T09:05:50;4.47;;;3.67;;
10432;SDS011;5263;48.680;9.004;2022-12-07T09:08:17;4.97;;;4.27;;
10432;SDS011;5263;48.680;9.004;2022-12-07T09:10:43;3.97;;;3.57;;
10432;SDS011;5263;48.680;9.004;2022-12-07T09:13:08;4.43;;;3.83;;
10432;SDS011;5263;48.680;9.004;2022-12-07T09:15:34;5.17;;;3.70;;
10432;SDS011;5263;48.680;9.004;2022-12-07T09:17:59;3.77;;;3.47;;
10432;SDS011;5263;48.680;9.004;2022-12-07T09:20:25;3.80;;;3.30;;
10432;SDS011;5263;48.680;9.004;2022-12-07T09:22:50;5.07;;;3.67;;
10432;SDS011;5263;48.680;9.004;2022-12-07T09:25:16;3.90;;;3.60;;
10432;SDS011;5263;48.680;9.004;2022-12-07T09:27:42;5.20;;;4.40;;
10432;SDS011;5263;48.680;9.004;2022-12-07T09:30:07;3.83;;;3.10;;
10432;SDS011;5263;48.680;9.004;2022-12-07T09:32:33;5.53;;;3.20;;
10432;SDS011;5263;48.680;9.004;2022-12-07T09:34:59;4.00;;;3.60;;
10432;SDS011;5263;48.680;9.004;2022-12-07T09:37:25;3.63;;;3.33;;
10432;SDS011;5263;48.680;9.004;2022-12-07T09:39:51;4.03;;;3.27;;
10432;SDS011;5263;48.680;9.004;2022-12-07T09:42:38;3.43;;;3.13;;
10432;SDS011;5263;48.680;9.004;2022-12-07T09:45:16;7.27;;;3.70;;
10432;SDS011;5263;48.680;9.004;2022-12-07T09:47:46;3.20;;;2.67;;
10432;SDS011;5263;48.680;9.004;2022-12-07T09:50:13;4.30;;;3.03;;
10432;SDS011;5263;48.680;9.004;2022-12-07T09:52:42;2.97;;;2.67;;
10432;SDS011;5263;48.680;9.004;2022-12-07T09:55:12;3.57;;;3.27;;
10432;SDS011;5263;48.680;9.004;2022-12-07T09:57:41;5.43;;;3.17;;
10432;SDS011;5263;48.680;9.004;2022-12-07T10:00:18;3.40;;;3.10;;
10432;SDS011;5263;48.680;9.004;2022-12-07T10:02:47;3.83;;;3.10;;
10432;SDS011;5263;48.680;9.004;2022-12-07T10:08:01;5.17;;;2.90;;
10432;SDS011;5263;48.680;9.004;2022-12-07T10:10:31;4.13;;;3.17;;
10432;SDS011;5263;48.680;9.004;2022-12-07T10:12:59;4.07;;;3.40;;
10432;SDS011;5263;48.680;9.004;2022-12-07T10:21:00;5.77;;;3.07;;
10432;SDS011;5263;48.680;9.004;2022-12-07T10:23:26;3.77;;;3.27;;
10432;SDS011;5263;48.680;9.004;2022-12-07T10:25:52;4.03;;;3.73;;
10432;SDS011;5263;48.680;9.004;2022-12-07T10:28:20;3.37;;;3.07;;
10432;SDS011;5263;48.680;9.004;2022-12-07T10:33:38;4.67;;;4.00;;
10432;SDS011;5263;48.680;9.004;2022-12-07T10:36:18;3.47;;;3.17;;
10432;SDS011;5263;48.680;9.004;2022-12-07T10:38:48;2.70;;;2.50;;
10432;SDS011;5263;48.680;9.004;2022-12-07T10:41:23;6.47;;;4.93;;
10432;SDS011;5263;48.680;9.004;2022-12-07T10:43:50;3.00;;;2.70;;
10432;SDS011;5263;48.680;9.004;2022-12-07T11:00:17;2.90;;;2.60;;
10432;SDS011;5263;48.680;9.004;2022-12-07T11:03:00;3.37;;;3.03;;
10432;SDS011;5263;48.680;9.004;2022-12-07T11:08:38;3.40;;;2.53;;
10432;SDS011;5263;48.680;9.004;2022-12-07T11:27:37;5.83;;;3.73;;
10432;SDS011;5263;48.680;9.004;2022-12-07T11:30:23;8.07;;;7.27;;
10432;SDS011;5263;48.680;9.004;2022-12-07T11:35:49;3.73;;;2.80;;
10432;SDS011;5263;48.680;9.004;2022-12-07T11:38:43;4.20;;;2.63;;
10432;SDS011;5263;48.680;9.004;2022-12-07T11:41:13;7.67;;;4.87;;
10432;SDS011;5263;48.680;9.004;2022-12-07T11:46:16;2.70;;;2.50;;
10432;SDS011;5263;48.680;9.004;2022-12-07T11:48:55;5.60;;;4.40;;
10432;SDS011;5263;48.680;9.004;2022-12-07T11:51:28;6.33;;;5.70;;
10432;SDS011;5263;48.680;9.004;2022-12-07T11:54:01;5.97;;;4.37;;
10432;SDS011;5263;48.680;9.004;2022-12-07T11:56:44;4.63;;;2.77;;
10432;SDS011;5263;48.680;9.004;2022-12-07T12:02:02;3.13;;;2.80;;
10432;SDS011;5263;48.680;9.004;2022-12-07T12:07:24;2.50;;;2.30;;
10432;SDS011;5263;48.680;9.004;2022-12-07T12:09:59;2.87;;;2.63;;
10432;SDS011;5263;48.680;9.004;2022-12-07T12:15:13;3.33;;;3.03;;
10432;SDS011;5263;48.680;9.004;2022-12-07T12:18:01;6.87;;;2.30;;
10432;SDS011;5263;48.680;9.004;2022-12-07T12:21:25;3.47;;;3.17;;
10432;SDS011;5263;48.680;9.004;2022-12-07T12:23:45;7.00;;;6.23;;
10432;SDS011;5263;48.680;9.004;2022-12-07T12:26:26;4.00;;;3.20;;
10432;SDS011;5263;48.680;9.004;2022-12-07T12:28:58;3.40;;;3.10;;
10432;SDS011;5263;48.680;9.004;2022-12-07T12:31:36;4.10;;;3.73;;
10432;SDS011;5263;48.680;9.004;2022-12-07T12:34:10;4.00;;;3.33;;
10432;SDS011;5263;48.680;9.004;2022-12-07T12:36:55;2.37;;;2.17;;
10432;SDS011;5263;48.680;9.004;2022-12-07T12:39:21;2.70;;;1.83;;
10432;SDS011;5263;48.680;9.004;2022-12-07T12:55:11;5.03;;;3.37;;
10432;SDS011;5263;48.680;9.004;2022-12-07T12:57:26;1.50;;;1.40;;
10432;SDS011;5263;48.680;9.004;2022-12-07T13:02:27;2.90;;;2.00;;
10432;SDS011;5263;48.680;9.004;2022-12-07T13:21:00;3.43;;;1.63;;
10432;SDS011;5263;48.680;9.004;2022-12-07T13:26:11;4.77;;;3.70;;
10432;SDS011;5263;48.680;9.004;2022-12-07T13:28:50;3.77;;;2.07;;
10432;SDS011;5263;48.680;9.004;2022-12-07T13:34:26;1.97;;;1.70;;
10432;SDS011;5263;48.680;9.004;2022-12-07T13:36:55;1.87;;;1.67;;
10432;SDS011;5263;48.680;9.004;2022-12-07T13:39:22;4.00;;;1.63;;
10432;SDS011;5263;48.680;9.004;2022-12-07T13:41:54;1.43;;;1.33;;
10432;SDS011;5263;48.680;9.004;2022-12-07T13:44:22;2.03;;;1.30;;
10432;SDS011;5263;48.680;9.004;2022-12-07T13:49:48;1.87;;;1.60;;
10432;SDS011;5263;48.680;9.004;2022-12-07T13:52:18;5.03;;;1.80;;
10432;SDS011;5263;48.680;9.004;2022-12-07T13:55:01;1.90;;;1.67;;
10432;SDS011;5263;48.680;9.004;2022-12-07T13:57:29;3.17;;;1.93;;
10432;SDS011;5263;48.680;9.004;2022-12-07T13:59:59;2.80;;;2.00;;
10432;SDS011;5263;48.680;9.004;2022-12-07T14:02:27;2.27;;;1.80;;
10432;SDS011;5263;48.680;9.004;2022-12-07T14:05:14;2.83;;;1.90;;
10432;SDS011;5263;48.680;9.004;2022-12-07T14:08:33;2.77;;;1.80;;
10432;SDS011;5263;48.680;9.004;2022-12-07T14:10:35;2.47;;;2.27;;
10432;SDS011;5263;48.680;9.004;2022-12-07T14:18:57;3.30;;;2.60;;
10432;SDS011;5263;48.680;9.004;2022-12-07T14:21:25;2.83;;;2.63;;
10432;SDS011;5263;48.680;9.004;2022-12-07T14:26:41;3.87;;;3.47;;
10432;SDS011;5263;48.680;9.004;2022-12-07T14:31:51;5.20;;;2.90;;
10432;SDS011;5263;48.680;9.004;2022-12-07T14:34:21;2.73;;;2.53;;
10432;SDS011;5263;48.680;9.004;2022-12-07T14:36:47;5.10;;;2.73;;
10432;SDS011;5263;48.680;9.004;2022-12-07T14:39:12;2.57;;;2.37;;
10432;SDS011;5263;48.680;9.004;2022-12-07T14:41:38;4.47;;;2.93;;
10432;SDS011;5263;48.680;9.004;2022-12-07T14:44:16;3.57;;;2.63;;
10432;SDS011;5263;48.680;9.004;2022-12-07T14:46:42;5.07;;;2.70;;
10432;SDS011;5263;48.680;9.004;2022-12-07T14:49:08;4.43;;;3.40;;
10432;SDS011;5263;48.680;9.004;2022-12-07T14:51:33;2.63;;;2.53;;
10432;SDS011;5263;48.680;9.004;2022-12-07T14:54:03;3.40;;;3.10;;
10432;SDS011;5263;48.680;9.004;2022-12-07T14:56:31;6.83;;;2.93;;
10432;SDS011;5263;48.680;9.004;2022-12-07T14:58:56;3.90;;;3.50;;
10432;SDS011;5263;48.680;9.004;2022-12-07T15:01:22;9.77;;;5.97;;
10432;SDS011;5263;48.680;9.004;2022-12-07T15:03:48;7.23;;;4.60;;
10432;SDS011;5263;48.680;9.004;2022-12-07T15:06:14;5.03;;;3.27;;
10432;SDS011;5263;48.680;9.004;2022-12-07T15:08:42;3.90;;;3.10;;
10432;SDS011;5263;48.680;9.004;2022-12-07T15:11:11;4.53;;;3.50;;
10432;SDS011;5263;48.680;9.004;2022-12-07T15:13:41;17.97;;;10.90;;
10432;SDS011;5263;48.680;9.004;2022-12-07T15:16:25;5.10;;;4.33;;
10432;SDS011;5263;48.680;9.004;2022-12-07T15:18:51;5.70;;;4.70;;
10432;SDS011;5263;48.680;9.004;2022-12-07T15:21:16;4.53;;;3.77;;
10432;SDS011;5263;48.680;9.004;2022-12-07T15:23:42;5.80;;;4.13;;
10432;SDS011;5263;48.680;9.004;2022-12-07T15:26:09;3.57;;;3.27;;
10432;SDS011;5263;48.680;9.004;2022-12-07T15:28:35;3.40;;;3.07;;
10432;SDS011;5263;48.680;9.004;2022-12-07T15:31:01;5.43;;;3.67;;
10432;SDS011;5263;48.680;9.004;2022-12-07T15:33:27;5.00;;;3.53;;
10432;SDS011;5263;48.680;9.004;2022-12-07T15:35:53;4.70;;;3.70;;
10432;SDS011;5263;48.680;9.004;2022-12-07T15:38:18;8.10;;;4.40;;
10432;SDS011;5263;48.680;9.004;2022-12-07T15:40:47;7.57;;;5.47;;
10432;SDS011;5263;48.680;9.004;2022-12-07T15:43:13;7.07;;;4.67;;
10432;SDS011;5263;48.680;9.004;2022-12-07T15:45:57;6.20;;;4.80;;
10432;SDS011;5263;48.680;9.004;2022-12-07T15:48:24;7.50;;;4.30;;
10432;SDS011;5263;48.680;9.004;2022-12-07T15:50:50;6.43;;;4.93;;
10432;SDS011;5263;48.680;9.004;2022-12-07T15:53:16;13.50;;;8.77;;
10432;SDS011;5263;48.680;9.004;2022-12-07T15:55:42;11.77;;;6.53;;
10432;SDS011;5263;48.680;9.004;2022-12-07T15:58:07;7.17;;;5.20;;
10432;SDS011;5263;48.680;9.004;2022-12-07T16:00:33;7.63;;;5.63;;
10432;SDS011;5263;48.680;9.004;2022-12-07T16:02:58;8.93;;;6.30;;
10432;SDS011;5263;48.680;9.004;2022-12-07T16:05:24;7.13;;;5.93;;
10432;SDS011;5263;48.680;9.004;2022-12-07T16:07:49;6.53;;;5.83;;
10432;SDS011;5263;48.680;9.004;2022-12-07T16:10:15;6.83;;;5.73;;
10432;SDS011;5263;48.680;9.004;2022-12-07T16:12:41;9.30;;;6.33;;
10432;SDS011;5263;48.680;9.004;2022-12-07T16:15:07;11.37;;;8.40;;
10432;SDS011;5263;48.680;9.004;2022-12-07T16:17:33;8.17;;;6.20;;
10432;SDS011;5263;48.680;9.004;2022-12-07T16:19:58;10.03;;;6.13;;
10432;SDS011;5263;48.680;9.004;2022-12-07T16:22:24;7.40;;;6.57;;
10432;SDS011;5263;48.680;9.004;2022-12-07T16:24:49;9.10;;;6.77;;
10432;SDS011;5263;48.680;9.004;2022-12-07T16:27:15;10.70;;;6.53;;
10432;SDS011;5263;48.680;9.004;2022-12-07T16:29:41;7.83;;;6.33;;
10432;SDS011;5263;48.680;9.004;2022-12-07T16:32:07;7.20;;;5.23;;
10432;SDS011;5263;48.680;9.004;2022-12-07T16:34:32;8.63;;;6.43;;
10432;SDS011;5263;48.680;9.004;2022-12-07T16:36:58;7.47;;;5.30;;
10432;SDS011;5263;48.680;9.004;2022-12-07T16:39:24;6.03;;;4.70;;
10432;SDS011;5263;48.680;9.004;2022-12-07T16:41:49;10.10;;;5.97;;
10432;SDS011;5263;48.680;9.004;2022-12-07T16:44:15;7.60;;;6.20;;
10432;SDS011;5263;48.680;9.004;2022-12-07T16:46:41;8.27;;;5.37;;
10432;SDS011;5263;48.680;9.004;2022-12-07T16:49:10;8.50;;;5.10;;
10432;SDS011;5263;48.680;9.004;2022-12-07T16:51:38;8.50;;;5.67;;
10432;SDS011;5263;48.680;9.004;2022-12-07T16:54:04;7.90;;;5.77;;
10432;SDS011;5263;48.680;9.004;2022-12-07T16:56:29;10.63;;;6.53;;
10432;SDS011;5263;48.680;9.004;2022-12-07T16:58:57;7.07;;;6.37;;
10432;SDS011;5263;48.680;9.004;2022-12-07T17:01:23;8.53;;;6.70;;
10432;SDS011;5263;48.680;9.004;2022-12-07T17:03:49;9.60;;;5.77;;
10432;SDS011;5263;48.680;9.004;2022-12-07T17:06:22;8.60;;;5.20;;
10432;SDS011;5263;48.680;9.004;2022-12-07T17:08:49;10.77;;;5.90;;
10432;SDS011;5263;48.680;9.004;2022-12-07T17:11:17;7.43;;;5.67;;
10432;SDS011;5263;48.680;9.004;2022-12-07T17:13:44;4.97;;;4.47;;
10432;SDS011;5263;48.680;9.004;2022-12-07T17:16:28;7.20;;;5.63;;
10432;SDS011;5263;48.680;9.004;2022-12-07T17:18:55;6.40;;;5.40;;
10432;SDS011;5263;48.680;9.004;2022-12-07T17:21:21;8.37;;;5.67;;
10432;SDS011;5263;48.680;9.004;2022-12-07T17:23:47;8.00;;;6.00;;
10432;SDS011;5263;48.680;9.004;2022-12-07T17:26:15;8.07;;;5.40;;
10432;SDS011;5263;48.680;9.004;2022-12-07T17:28:42;5.13;;;4.37;;
10432;SDS011;5263;48.680;9.004;2022-12-07T17:31:09;7.80;;;5.97;;